sensor_id;sensor_type;location;lat;lon;timestamp;P1;durP1;ratioP1;P2;durP2;ratioP2
870;SDS011;422;51.280;7.236;2022-12-18T00:02:24;10.40;;;5.90;;
870;SDS011;422;51.280;7.236;2022-12-18T00:04:52;9.83;;;6.10;;
870;SDS011;422;51.280;7.236;2022-12-18T00:07:19;8.57;;;6.63;;
870;SDS011;422;51.280;7.236;2022-12-18T00:09:47;10.27;;;6.77;;
870;SDS011;422;51.280;7.236;2022-12-18T00:12:14;9.23;;;5.90;;
870;SDS011;422;51.280;7.236;2022-12-18T00:14:44;8.50;;;5.90;;
870;SDS011;422;51.280;7.236;2022-12-18T00:17:11;8.20;;;5.40;;
870;SDS011;422;51.280;7.236;2022-12-18T00:19:38;9.73;;;6.17;;
870;SDS011;422;51.280;7.236;2022-12-18T00:22:07;8.90;;;5.03;;
870;SDS011;422;51.280;7.236;2022-12-18T00:24:34;10.80;;;5.37;;
870;SDS011;422;51.280;7.236;2022-12-18T00:27:01;7.53;;;5.87;;
870;SDS011;422;51.280;7.236;2022-12-18T00:29:29;6.77;;;5.20;;
870;SDS011;422;51.280;7.236;2022-12-18T00:31:56;10.23;;;5.83;;
870;SDS011;422;51.280;7.236;2022-12-18T00:34:23;9.70;;;5.47;;
870;SDS011;422;51.280;7.236;2022-12-18T00:36:51;8.97;;;5.87;;
870;SDS011;422;51.280;7.236;2022-12-18T00:39:20;8.73;;;5.20;;
870;SDS011;422;51.280;7.236;2022-12-18T00:41:47;8.77;;;5.97;;
870;SDS011;422;51.280;7.236;2022-12-18T00:44:31;9.73;;;5.33;;
870;SDS011;422;51.280;7.236;2022-12-18T00:46:59;8.20;;;5.30;;
870;SDS011;422;51.280;7.236;2022-12-18T00:49:26;10.87;;;6.27;;
870;SDS011;422;51.280;7.236;2022-12-18T00:51:53;9.30;;;6.10;;
870;SDS011;422;51.280;7.236;2022-12-18T00:54:22;9.73;;;6.30;;
870;SDS011;422;51.280;7.236;2022-12-18T00:56:49;8.87;;;5.40;;
870;SDS011;422;51.280;7.236;2022-12-18T00:59:17;8.60;;;5.40;;
870;SDS011;422;51.280;7.236;2022-12-18T01:01:44;8.03;;;5.33;;
870;SDS011;422;51.280;7.236;2022-12-18T01:04:12;13.67;;;5.90;;
870;SDS011;422;51.280;7.236;2022-12-18T01:06:40;8.53;;;5.70;;
870;SDS011;422;51.280;7.236;2022-12-18T01:09:07;9.67;;;4.93;;
870;SDS011;422;51.280;7.236;2022-12-18T01:11:36;15.83;;;6.47;;
870;SDS011;422;51.280;7.236;2022-12-18T01:14:03;8.30;;;5.80;;
870;SDS011;422;51.280;7.236;2022-12-18T01:16:31;10.20;;;6.30;;
870;SDS011;422;51.280;7.236;2022-12-18T01:18:58;8.70;;;5.97;;
870;SDS011;422;51.280;7.236;2022-12-18T01:21:25;11.83;;;6.27;;
870;SDS011;422;51.280;7.236;2022-12-18T01:23:53;8.17;;;6.27;;
870;SDS011;422;51.280;7.236;2022-12-18T01:26:21;9.50;;;5.57;;
870;SDS011;422;51.280;7.236;2022-12-18T01:28:50;10.93;;;5.97;;
870;SDS011;422;51.280;7.236;2022-12-18T01:31:18;9.90;;;5.57;;
870;SDS011;422;51.280;7.236;2022-12-18T01:33:50;9.87;;;5.80;;
870;SDS011;422;51.280;7.236;2022-12-18T01:36:18;8.03;;;5.37;;
870;SDS011;422;51.280;7.236;2022-12-18T01:38:47;8.67;;;6.30;;
870;SDS011;422;51.280;7.236;2022-12-18T01:41:15;8.53;;;6.53;;
870;SDS011;422;51.280;7.236;2022-12-18T01:43:44;11.10;;;7.43;;
870;SDS011;422;51.280;7.236;2022-12-18T01:46:16;10.67;;;6.23;;
870;SDS011;422;51.280;7.236;2022-12-18T01:48:45;11.03;;;6.67;;
870;SDS011;422;51.280;7.236;2022-12-18T01:51:14;8.50;;;5.53;;
870;SDS011;422;51.280;7.236;2022-12-18T01:53:41;7.80;;;5.77;;
870;SDS011;422;51.280;7.236;2022-12-18T01:56:12;8.33;;;6.03;;
870;SDS011;422;51.280;7.236;2022-12-18T01:58:43;7.20;;;5.13;;
870;SDS011;422;51.280;7.236;2022-12-18T02:01:16;7.73;;;5.70;;
870;SDS011;422;51.280;7.236;2022-12-18T02:03:44;8.77;;;5.30;;
870;SDS011;422;51.280;7.236;2022-12-18T02:06:13;7.87;;;5.63;;
870;SDS011;422;51.280;7.236;2022-12-18T02:08:58;11.40;;;6.10;;
870;SDS011;422;51.280;7.236;2022-12-18T02:11:38;9.40;;;6.20;;
870;SDS011;422;51.280;7.236;2022-12-18T02:14:17;7.30;;;5.10;;
870;SDS011;422;51.280;7.236;2022-12-18T02:16:52;8.50;;;6.27;;
870;SDS011;422;51.280;7.236;2022-12-18T02:19:44;9.67;;;6.00;;
870;SDS011;422;51.280;7.236;2022-12-18T02:22:26;12.83;;;6.27;;
870;SDS011;422;51.280;7.236;2022-12-18T02:25:00;9.30;;;6.40;;
870;SDS011;422;51.280;7.236;2022-12-18T02:27:39;10.07;;;6.93;;
870;SDS011;422;51.280;7.236;2022-12-18T02:30:08;11.90;;;6.23;;
870;SDS011;422;51.280;7.236;2022-12-18T02:32:37;8.37;;;6.57;;
870;SDS011;422;51.280;7.236;2022-12-18T02:35:10;9.40;;;6.10;;
870;SDS011;422;51.280;7.236;2022-12-18T02:37:39;8.27;;;6.17;;
870;SDS011;422;51.280;7.236;2022-12-18T02:40:09;9.40;;;5.83;;
870;SDS011;422;51.280;7.236;2022-12-18T02:42:39;8.80;;;6.40;;
870;SDS011;422;51.280;7.236;2022-12-18T02:45:06;12.47;;;6.77;;
870;SDS011;422;51.280;7.236;2022-12-18T02:47:35;9.00;;;6.40;;
870;SDS011;422;51.280;7.236;2022-12-18T02:50:07;9.67;;;6.20;;
870;SDS011;422;51.280;7.236;2022-12-18T02:52:41;7.93;;;5.57;;
870;SDS011;422;51.280;7.236;2022-12-18T02:55:19;9.77;;;6.47;;
870;SDS011;422;51.280;7.236;2022-12-18T02:57:56;11.40;;;6.67;;
870;SDS011;422;51.280;7.236;2022-12-18T03:00:30;9.27;;;6.00;;
870;SDS011;422;51.280;7.236;2022-12-18T03:03:02;10.03;;;6.63;;
870;SDS011;422;51.280;7.236;2022-12-18T03:05:36;9.43;;;6.43;;
870;SDS011;422;51.280;7.236;2022-12-18T03:08:08;9.77;;;6.20;;
870;SDS011;422;51.280;7.236;2022-12-18T03:10:41;8.87;;;5.93;;
870;SDS011;422;51.280;7.236;2022-12-18T03:13:15;9.30;;;5.10;;
870;SDS011;422;51.280;7.236;2022-12-18T03:15:47;12.07;;;6.37;;
870;SDS011;422;51.280;7.236;2022-12-18T03:18:17;8.40;;;5.33;;
870;SDS011;422;51.280;7.236;2022-12-18T03:20:47;11.03;;;7.00;;
870;SDS011;422;51.280;7.236;2022-12-18T03:23:19;11.90;;;6.67;;
870;SDS011;422;51.280;7.236;2022-12-18T03:25:51;8.97;;;6.00;;
870;SDS011;422;51.280;7.236;2022-12-18T03:28:23;9.03;;;6.63;;
870;SDS011;422;51.280;7.236;2022-12-18T03:30:52;9.87;;;5.90;;
870;SDS011;422;51.280;7.236;2022-12-18T03:33:25;13.37;;;7.40;;
870;SDS011;422;51.280;7.236;2022-12-18T03:35:54;9.87;;;6.17;;
870;SDS011;422;51.280;7.236;2022-12-18T03:38:22;10.70;;;6.70;;
870;SDS011;422;51.280;7.236;2022-12-18T03:40:53;10.87;;;6.97;;
870;SDS011;422;51.280;7.236;2022-12-18T03:43:29;8.03;;;6.23;;
870;SDS011;422;51.280;7.236;2022-12-18T03:46:02;12.23;;;6.20;;
870;SDS011;422;51.280;7.236;2022-12-18T03:48:35;11.80;;;6.20;;
870;SDS011;422;51.280;7.236;2022-12-18T03:51:05;9.63;;;6.30;;
870;SDS011;422;51.280;7.236;2022-12-18T03:53:37;8.37;;;6.57;;
870;SDS011;422;51.280;7.236;2022-12-18T03:56:10;10.27;;;6.80;;
870;SDS011;422;51.280;7.236;2022-12-18T03:58:41;9.77;;;6.30;;
870;SDS011;422;51.280;7.236;2022-12-18T04:01:11;8.80;;;5.90;;
870;SDS011;422;51.280;7.236;2022-12-18T04:03:41;10.33;;;6.83;;
870;SDS011;422;51.280;7.236;2022-12-18T04:06:10;14.73;;;6.00;;
870;SDS011;422;51.280;7.236;2022-12-18T04:08:40;9.90;;;5.63;;
870;SDS011;422;51.280;7.236;2022-12-18T04:11:07;11.33;;;6.57;;
870;SDS011;422;51.280;7.236;2022-12-18T04:13:35;9.47;;;6.30;;
870;SDS011;422;51.280;7.236;2022-12-18T04:16:05;9.77;;;6.87;;
870;SDS011;422;51.280;7.236;2022-12-18T04:18:34;8.40;;;5.90;;
870;SDS011;422;51.280;7.236;2022-12-18T04:21:02;12.70;;;7.77;;
870;SDS011;422;51.280;7.236;2022-12-18T04:23:29;10.10;;;5.83;;
870;SDS011;422;51.280;7.236;2022-12-18T04:25:56;9.60;;;6.40;;
870;SDS011;422;51.280;7.236;2022-12-18T04:28:24;10.73;;;6.93;;
870;SDS011;422;51.280;7.236;2022-12-18T04:30:51;11.07;;;5.70;;
870;SDS011;422;51.280;7.236;2022-12-18T04:33:19;10.50;;;6.80;;
870;SDS011;422;51.280;7.236;2022-12-18T04:35:47;9.77;;;5.80;;
870;SDS011;422;51.280;7.236;2022-12-18T04:38:14;7.97;;;6.03;;
870;SDS011;422;51.280;7.236;2022-12-18T04:40:41;7.93;;;5.20;;
870;SDS011;422;51.280;7.236;2022-12-18T04:43:09;7.37;;;5.60;;
870;SDS011;422;51.280;7.236;2022-12-18T04:45:36;10.20;;;5.30;;
870;SDS011;422;51.280;7.236;2022-12-18T04:48:03;9.90;;;5.90;;
870;SDS011;422;51.280;7.236;2022-12-18T04:50:32;7.23;;;4.47;;
870;SDS011;422;51.280;7.236;2022-12-18T04:53:00;9.17;;;5.93;;
870;SDS011;422;51.280;7.236;2022-12-18T04:55:27;8.13;;;5.37;;
870;SDS011;422;51.280;7.236;2022-12-18T04:57:54;11.40;;;5.30;;
870;SDS011;422;51.280;7.236;2022-12-18T05:00:22;8.40;;;5.40;;
870;SDS011;422;51.280;7.236;2022-12-18T05:02:49;9.33;;;6.00;;
870;SDS011;422;51.280;7.236;2022-12-18T05:05:16;12.50;;;7.20;;
870;SDS011;422;51.280;7.236;2022-12-18T05:07:45;11.43;;;9.73;;
870;SDS011;422;51.280;7.236;2022-12-18T05:10:12;13.60;;;11.43;;
870;SDS011;422;51.280;7.236;2022-12-18T05:12:39;14.10;;;10.30;;
870;SDS011;422;51.280;7.236;2022-12-18T05:15:20;11.10;;;8.80;;
870;SDS011;422;51.280;7.236;2022-12-18T05:17:47;8.80;;;6.77;;
870;SDS011;422;51.280;7.236;2022-12-18T05:20:14;10.47;;;6.63;;
870;SDS011;422;51.280;7.236;2022-12-18T05:22:44;7.70;;;5.13;;
870;SDS011;422;51.280;7.236;2022-12-18T05:25:11;7.83;;;5.40;;
870;SDS011;422;51.280;7.236;2022-12-18T05:27:39;8.63;;;6.17;;
870;SDS011;422;51.280;7.236;2022-12-18T05:30:06;8.40;;;5.83;;
870;SDS011;422;51.280;7.236;2022-12-18T05:32:34;7.80;;;5.43;;
870;SDS011;422;51.280;7.236;2022-12-18T05:35:02;7.50;;;4.90;;
870;SDS011;422;51.280;7.236;2022-12-18T05:37:29;10.77;;;5.60;;
870;SDS011;422;51.280;7.236;2022-12-18T05:39:58;10.53;;;5.87;;
870;SDS011;422;51.280;7.236;2022-12-18T05:42:25;9.00;;;5.60;;
870;SDS011;422;51.280;7.236;2022-12-18T05:44:52;8.77;;;5.30;;
870;SDS011;422;51.280;7.236;2022-12-18T05:47:19;7.13;;;5.00;;
870;SDS011;422;51.280;7.236;2022-12-18T05:49:47;9.33;;;4.67;;
870;SDS011;422;51.280;7.236;2022-12-18T05:52:14;11.30;;;6.57;;
870;SDS011;422;51.280;7.236;2022-12-18T05:54:41;10.90;;;6.40;;
870;SDS011;422;51.280;7.236;2022-12-18T05:57:10;7.13;;;5.00;;
870;SDS011;422;51.280;7.236;2022-12-18T05:59:37;8.80;;;5.63;;
870;SDS011;422;51.280;7.236;2022-12-18T06:02:04;6.53;;;5.50;;
870;SDS011;422;51.280;7.236;2022-12-18T06:04:31;9.40;;;6.10;;
870;SDS011;422;51.280;7.236;2022-12-18T06:06:58;8.03;;;5.43;;
870;SDS011;422;51.280;7.236;2022-12-18T06:09:28;8.13;;;5.40;;
870;SDS011;422;51.280;7.236;2022-12-18T06:11:56;8.37;;;5.30;;
870;SDS011;422;51.280;7.236;2022-12-18T06:14:24;8.83;;;5.30;;
870;SDS011;422;51.280;7.236;2022-12-18T06:16:52;7.90;;;5.23;;
870;SDS011;422;51.280;7.236;2022-12-18T06:19:19;12.60;;;7.27;;
870;SDS011;422;51.280;7.236;2022-12-18T06:21:46;9.10;;;5.73;;
870;SDS011;422;51.280;7.236;2022-12-18T06:24:14;7.40;;;4.80;;
870;SDS011;422;51.280;7.236;2022-12-18T06:26:41;7.70;;;5.53;;
870;SDS011;422;51.280;7.236;2022-12-18T06:29:08;8.50;;;5.47;;
870;SDS011;422;51.280;7.236;2022-12-18T06:31:37;7.80;;;5.67;;
870;SDS011;422;51.280;7.236;2022-12-18T06:34:04;9.20;;;5.03;;
870;SDS011;422;51.280;7.236;2022-12-18T06:36:31;10.87;;;6.73;;
870;SDS011;422;51.280;7.236;2022-12-18T06:38:58;11.77;;;6.17;;
870;SDS011;422;51.280;7.236;2022-12-18T06:41:26;10.10;;;6.13;;
870;SDS011;422;51.280;7.236;2022-12-18T06:43:53;9.87;;;6.37;;
870;SDS011;422;51.280;7.236;2022-12-18T06:46:20;11.87;;;6.40;;
870;SDS011;422;51.280;7.236;2022-12-18T06:48:49;9.63;;;6.03;;
870;SDS011;422;51.280;7.236;2022-12-18T06:51:18;9.90;;;5.50;;
870;SDS011;422;51.280;7.236;2022-12-18T06:53:46;11.03;;;8.00;;
870;SDS011;422;51.280;7.236;2022-12-18T06:56:13;12.13;;;7.33;;
870;SDS011;422;51.280;7.236;2022-12-18T06:58:40;7.90;;;5.70;;
870;SDS011;422;51.280;7.236;2022-12-18T07:01:09;9.80;;;6.90;;
870;SDS011;422;51.280;7.236;2022-12-18T07:03:37;10.07;;;6.43;;
870;SDS011;422;51.280;7.236;2022-12-18T07:06:11;9.20;;;6.53;;
870;SDS011;422;51.280;7.236;2022-12-18T07:08:40;10.70;;;6.73;;
870;SDS011;422;51.280;7.236;2022-12-18T07:11:08;10.27;;;6.37;;
870;SDS011;422;51.280;7.236;2022-12-18T07:13:35;8.70;;;5.70;;
870;SDS011;422;51.280;7.236;2022-12-18T07:16:03;11.63;;;6.57;;
870;SDS011;422;51.280;7.236;2022-12-18T07:18:32;11.50;;;7.33;;
870;SDS011;422;51.280;7.236;2022-12-18T07:21:02;8.50;;;5.57;;
870;SDS011;422;51.280;7.236;2022-12-18T07:23:31;12.60;;;7.30;;
870;SDS011;422;51.280;7.236;2022-12-18T07:26:00;8.23;;;5.50;;
870;SDS011;422;51.280;7.236;2022-12-18T07:28:29;10.00;;;6.23;;
870;SDS011;422;51.280;7.236;2022-12-18T07:30:56;10.03;;;5.70;;
870;SDS011;422;51.280;7.236;2022-12-18T07:33:24;10.10;;;6.40;;
870;SDS011;422;51.280;7.236;2022-12-18T07:35:51;9.07;;;5.87;;
870;SDS011;422;51.280;7.236;2022-12-18T07:38:18;8.77;;;5.80;;
870;SDS011;422;51.280;7.236;2022-12-18T07:40:47;11.30;;;6.70;;
870;SDS011;422;51.280;7.236;2022-12-18T07:43:14;6.60;;;5.07;;
870;SDS011;422;51.280;7.236;2022-12-18T07:45:41;8.40;;;5.40;;
870;SDS011;422;51.280;7.236;2022-12-18T07:48:09;9.80;;;5.50;;
870;SDS011;422;51.280;7.236;2022-12-18T07:50:36;9.33;;;5.43;;
870;SDS011;422;51.280;7.236;2022-12-18T07:53:03;13.10;;;6.00;;
870;SDS011;422;51.280;7.236;2022-12-18T07:55:31;7.43;;;4.87;;
870;SDS011;422;51.280;7.236;2022-12-18T07:58:01;7.87;;;5.40;;
870;SDS011;422;51.280;7.236;2022-12-18T08:00:29;10.63;;;5.57;;
870;SDS011;422;51.280;7.236;2022-12-18T08:02:57;8.87;;;5.50;;
870;SDS011;422;51.280;7.236;2022-12-18T08:05:24;7.33;;;4.83;;
870;SDS011;422;51.280;7.236;2022-12-18T08:07:52;8.40;;;5.23;;
870;SDS011;422;51.280;7.236;2022-12-18T08:10:19;8.37;;;5.47;;
870;SDS011;422;51.280;7.236;2022-12-18T08:12:48;9.17;;;5.67;;
870;SDS011;422;51.280;7.236;2022-12-18T08:15:17;6.60;;;4.93;;
870;SDS011;422;51.280;7.236;2022-12-18T08:17:45;9.10;;;5.23;;
870;SDS011;422;51.280;7.236;2022-12-18T08:20:12;7.10;;;5.50;;
870;SDS011;422;51.280;7.236;2022-12-18T08:22:40;10.37;;;5.53;;
870;SDS011;422;51.280;7.236;2022-12-18T08:25:07;7.37;;;4.63;;
870;SDS011;422;51.280;7.236;2022-12-18T08:27:35;10.40;;;6.13;;
870;SDS011;422;51.280;7.236;2022-12-18T08:30:02;7.77;;;5.40;;
870;SDS011;422;51.280;7.236;2022-12-18T08:32:32;10.50;;;6.23;;
870;SDS011;422;51.280;7.236;2022-12-18T08:34:59;7.43;;;5.80;;
870;SDS011;422;51.280;7.236;2022-12-18T08:37:26;8.43;;;5.50;;
870;SDS011;422;51.280;7.236;2022-12-18T08:39:53;8.70;;;5.00;;
870;SDS011;422;51.280;7.236;2022-12-18T08:42:20;7.80;;;4.63;;
870;SDS011;422;51.280;7.236;2022-12-18T08:45:06;6.30;;;5.03;;
870;SDS011;422;51.280;7.236;2022-12-18T08:47:35;7.77;;;5.50;;
870;SDS011;422;51.280;7.236;2022-12-18T08:50:03;7.43;;;4.57;;
870;SDS011;422;51.280;7.236;2022-12-18T08:52:31;7.10;;;4.80;;
870;SDS011;422;51.280;7.236;2022-12-18T08:54:58;9.77;;;4.70;;
870;SDS011;422;51.280;7.236;2022-12-18T08:57:26;8.13;;;5.30;;
870;SDS011;422;51.280;7.236;2022-12-18T08:59:53;7.60;;;5.23;;
870;SDS011;422;51.280;7.236;2022-12-18T09:02:20;8.80;;;5.50;;
870;SDS011;422;51.280;7.236;2022-12-18T09:04:49;6.17;;;4.47;;
870;SDS011;422;51.280;7.236;2022-12-18T09:07:16;7.23;;;5.10;;
870;SDS011;422;51.280;7.236;2022-12-18T09:09:43;7.60;;;4.77;;
870;SDS011;422;51.280;7.236;2022-12-18T09:12:11;5.70;;;4.57;;
870;SDS011;422;51.280;7.236;2022-12-18T09:14:38;8.80;;;4.97;;
870;SDS011;422;51.280;7.236;2022-12-18T09:17:05;6.87;;;4.80;;
870;SDS011;422;51.280;7.236;2022-12-18T09:19:32;7.13;;;4.87;;
870;SDS011;422;51.280;7.236;2022-12-18T09:22:01;8.30;;;5.17;;
870;SDS011;422;51.280;7.236;2022-12-18T09:24:28;5.77;;;4.50;;
870;SDS011;422;51.280;7.236;2022-12-18T09:26:55;7.40;;;5.60;;
870;SDS011;422;51.280;7.236;2022-12-18T09:29:23;5.50;;;4.30;;
870;SDS011;422;51.280;7.236;2022-12-18T09:31:50;7.87;;;5.07;;
870;SDS011;422;51.280;7.236;2022-12-18T09:34:17;6.83;;;4.43;;
870;SDS011;422;51.280;7.236;2022-12-18T09:36:46;5.90;;;4.30;;
870;SDS011;422;51.280;7.236;2022-12-18T09:39:14;7.00;;;4.53;;
870;SDS011;422;51.280;7.236;2022-12-18T09:41:45;7.20;;;5.00;;
870;SDS011;422;51.280;7.236;2022-12-18T09:44:20;6.23;;;3.93;;
870;SDS011;422;51.280;7.236;2022-12-18T09:46:54;5.13;;;3.93;;
870;SDS011;422;51.280;7.236;2022-12-18T09:49:34;7.40;;;4.10;;
870;SDS011;422;51.280;7.236;2022-12-18T09:52:03;4.90;;;3.33;;
870;SDS011;422;51.280;7.236;2022-12-18T09:54:38;7.13;;;3.90;;
870;SDS011;422;51.280;7.236;2022-12-18T09:57:11;7.57;;;4.47;;
870;SDS011;422;51.280;7.236;2022-12-18T09:59:41;8.40;;;4.60;;
870;SDS011;422;51.280;7.236;2022-12-18T10:02:14;7.37;;;4.00;;
870;SDS011;422;51.280;7.236;2022-12-18T10:04:42;5.93;;;4.03;;
870;SDS011;422;51.280;7.236;2022-12-18T10:07:13;6.00;;;3.90;;
870;SDS011;422;51.280;7.236;2022-12-18T10:09:48;8.67;;;4.80;;
870;SDS011;422;51.280;7.236;2022-12-18T10:12:24;6.90;;;4.43;;
870;SDS011;422;51.280;7.236;2022-12-18T10:14:58;5.73;;;3.63;;
870;SDS011;422;51.280;7.236;2022-12-18T10:17:34;7.47;;;5.57;;
870;SDS011;422;51.280;7.236;2022-12-18T10:20:10;8.07;;;4.40;;
870;SDS011;422;51.280;7.236;2022-12-18T10:22:43;5.80;;;3.90;;
870;SDS011;422;51.280;7.236;2022-12-18T10:25:22;6.30;;;4.50;;
870;SDS011;422;51.280;7.236;2022-12-18T10:27:52;5.97;;;4.33;;
870;SDS011;422;51.280;7.236;2022-12-18T10:30:23;5.53;;;4.30;;
870;SDS011;422;51.280;7.236;2022-12-18T10:32:51;5.23;;;4.43;;
870;SDS011;422;51.280;7.236;2022-12-18T10:35:20;6.87;;;4.50;;
870;SDS011;422;51.280;7.236;2022-12-18T10:40:52;16.87;;;5.27;;
870;SDS011;422;51.280;7.236;2022-12-18T10:43:22;5.73;;;4.00;;
870;SDS011;422;51.280;7.236;2022-12-18T10:45:58;6.27;;;4.60;;
870;SDS011;422;51.280;7.236;2022-12-18T10:48:27;7.67;;;4.30;;
870;SDS011;422;51.280;7.236;2022-12-18T10:50:56;6.00;;;4.63;;
870;SDS011;422;51.280;7.236;2022-12-18T10:53:24;5.13;;;4.63;;
870;SDS011;422;51.280;7.236;2022-12-18T10:55:55;6.30;;;4.70;;
870;SDS011;422;51.280;7.236;2022-12-18T10:58:28;4.80;;;4.00;;
870;SDS011;422;51.280;7.236;2022-12-18T11:01:04;4.97;;;4.00;;
870;SDS011;422;51.280;7.236;2022-12-18T11:03:34;7.67;;;5.57;;
870;SDS011;422;51.280;7.236;2022-12-18T11:06:04;5.87;;;4.43;;
870;SDS011;422;51.280;7.236;2022-12-18T11:08:33;5.07;;;4.10;;
870;SDS011;422;51.280;7.236;2022-12-18T11:11:03;6.27;;;5.30;;
870;SDS011;422;51.280;7.236;2022-12-18T11:13:36;6.60;;;4.13;;
870;SDS011;422;51.280;7.236;2022-12-18T11:16:04;7.57;;;4.70;;
870;SDS011;422;51.280;7.236;2022-12-18T11:18:33;5.87;;;4.37;;
870;SDS011;422;51.280;7.236;2022-12-18T11:21:05;7.30;;;5.30;;
870;SDS011;422;51.280;7.236;2022-12-18T11:23:34;6.73;;;4.90;;
870;SDS011;422;51.280;7.236;2022-12-18T11:26:04;7.00;;;4.60;;
870;SDS011;422;51.280;7.236;2022-12-18T11:28:35;7.90;;;5.03;;
870;SDS011;422;51.280;7.236;2022-12-18T11:31:09;6.57;;;5.27;;
870;SDS011;422;51.280;7.236;2022-12-18T11:33:44;6.90;;;5.00;;
870;SDS011;422;51.280;7.236;2022-12-18T11:36:17;7.00;;;4.70;;
870;SDS011;422;51.280;7.236;2022-12-18T11:38:46;5.63;;;4.47;;
870;SDS011;422;51.280;7.236;2022-12-18T11:41:19;7.97;;;5.53;;
870;SDS011;422;51.280;7.236;2022-12-18T11:44:13;10.03;;;5.23;;
870;SDS011;422;51.280;7.236;2022-12-18T11:46:45;9.37;;;5.17;;
870;SDS011;422;51.280;7.236;2022-12-18T11:49:19;10.83;;;5.47;;
870;SDS011;422;51.280;7.236;2022-12-18T11:51:51;7.73;;;5.00;;
870;SDS011;422;51.280;7.236;2022-12-18T11:54:25;6.50;;;5.13;;
870;SDS011;422;51.280;7.236;2022-12-18T11:56:55;9.23;;;6.03;;
870;SDS011;422;51.280;7.236;2022-12-18T11:59:30;6.43;;;4.80;;
870;SDS011;422;51.280;7.236;2022-12-18T12:02:11;12.07;;;5.47;;
870;SDS011;422;51.280;7.236;2022-12-18T12:05:04;9.50;;;6.17;;
870;SDS011;422;51.280;7.236;2022-12-18T12:07:48;9.33;;;6.20;;
870;SDS011;422;51.280;7.236;2022-12-18T12:10:31;6.97;;;5.10;;
870;SDS011;422;51.280;7.236;2022-12-18T12:13:11;7.70;;;5.87;;
870;SDS011;422;51.280;7.236;2022-12-18T12:15:50;6.67;;;5.60;;
870;SDS011;422;51.280;7.236;2022-12-18T12:18:32;9.10;;;6.07;;
870;SDS011;422;51.280;7.236;2022-12-18T12:21:11;7.33;;;5.27;;
870;SDS011;422;51.280;7.236;2022-12-18T12:23:49;9.50;;;6.30;;
870;SDS011;422;51.280;7.236;2022-12-18T12:26:26;11.73;;;6.90;;
870;SDS011;422;51.280;7.236;2022-12-18T12:29:04;10.90;;;6.10;;
870;SDS011;422;51.280;7.236;2022-12-18T12:31:46;10.07;;;6.53;;
870;SDS011;422;51.280;7.236;2022-12-18T12:34:25;8.43;;;5.73;;
870;SDS011;422;51.280;7.236;2022-12-18T12:37:03;11.13;;;7.43;;
870;SDS011;422;51.280;7.236;2022-12-18T12:39:42;9.30;;;6.30;;
870;SDS011;422;51.280;7.236;2022-12-18T12:42:14;7.40;;;5.70;;
870;SDS011;422;51.280;7.236;2022-12-18T12:45:04;8.73;;;6.33;;
870;SDS011;422;51.280;7.236;2022-12-18T12:47:39;11.10;;;7.20;;
870;SDS011;422;51.280;7.236;2022-12-18T12:50:12;9.20;;;7.20;;
870;SDS011;422;51.280;7.236;2022-12-18T12:52:43;10.37;;;7.47;;
870;SDS011;422;51.280;7.236;2022-12-18T12:55:14;11.20;;;7.10;;
870;SDS011;422;51.280;7.236;2022-12-18T12:57:45;10.97;;;7.70;;
870;SDS011;422;51.280;7.236;2022-12-18T13:00:22;18.80;;;8.73;;
870;SDS011;422;51.280;7.236;2022-12-18T13:02:51;10.90;;;7.50;;
870;SDS011;422;51.280;7.236;2022-12-18T13:05:26;9.40;;;7.60;;
870;SDS011;422;51.280;7.236;2022-12-18T13:07:59;10.27;;;7.17;;
870;SDS011;422;51.280;7.236;2022-12-18T13:10:34;11.93;;;7.70;;
870;SDS011;422;51.280;7.236;2022-12-18T13:13:03;12.13;;;8.27;;
870;SDS011;422;51.280;7.236;2022-12-18T13:15:33;10.93;;;8.07;;
870;SDS011;422;51.280;7.236;2022-12-18T13:18:04;10.10;;;7.10;;
870;SDS011;422;51.280;7.236;2022-12-18T13:20:41;11.80;;;8.13;;
870;SDS011;422;51.280;7.236;2022-12-18T13:23:26;13.00;;;8.87;;
870;SDS011;422;51.280;7.236;2022-12-18T13:25:56;28.47;;;14.17;;
870;SDS011;422;51.280;7.236;2022-12-18T13:28:48;11.27;;;7.90;;
870;SDS011;422;51.280;7.236;2022-12-18T13:34:36;14.20;;;8.50;;
870;SDS011;422;51.280;7.236;2022-12-18T13:43:28;18.60;;;10.00;;
870;SDS011;422;51.280;7.236;2022-12-18T13:45:59;12.57;;;9.17;;
870;SDS011;422;51.280;7.236;2022-12-18T13:48:29;17.57;;;9.87;;
870;SDS011;422;51.280;7.236;2022-12-18T13:51:00;13.87;;;9.47;;
870;SDS011;422;51.280;7.236;2022-12-18T13:53:31;10.93;;;8.00;;
870;SDS011;422;51.280;7.236;2022-12-18T13:56:02;14.40;;;10.17;;
870;SDS011;422;51.280;7.236;2022-12-18T13:58:30;13.60;;;9.50;;
870;SDS011;422;51.280;7.236;2022-12-18T14:00:58;17.57;;;10.80;;
870;SDS011;422;51.280;7.236;2022-12-18T14:03:28;14.90;;;11.30;;
870;SDS011;422;51.280;7.236;2022-12-18T14:05:56;14.63;;;10.20;;
870;SDS011;422;51.280;7.236;2022-12-18T14:08:34;14.47;;;10.00;;
870;SDS011;422;51.280;7.236;2022-12-18T14:11:04;13.80;;;9.57;;
870;SDS011;422;51.280;7.236;2022-12-18T14:13:34;14.13;;;9.80;;
870;SDS011;422;51.280;7.236;2022-12-18T14:16:04;14.53;;;9.60;;
870;SDS011;422;51.280;7.236;2022-12-18T14:18:36;20.10;;;11.53;;
870;SDS011;422;51.280;7.236;2022-12-18T14:21:17;14.97;;;9.80;;
870;SDS011;422;51.280;7.236;2022-12-18T14:23:47;15.83;;;10.60;;
870;SDS011;422;51.280;7.236;2022-12-18T14:26:22;16.00;;;10.40;;
870;SDS011;422;51.280;7.236;2022-12-18T14:28:54;15.33;;;9.67;;
870;SDS011;422;51.280;7.236;2022-12-18T14:31:22;13.43;;;9.03;;
870;SDS011;422;51.280;7.236;2022-12-18T14:33:51;15.23;;;10.47;;
870;SDS011;422;51.280;7.236;2022-12-18T14:36:21;12.10;;;9.27;;
870;SDS011;422;51.280;7.236;2022-12-18T14:38:50;14.93;;;10.03;;
870;SDS011;422;51.280;7.236;2022-12-18T14:41:19;14.70;;;10.07;;
870;SDS011;422;51.280;7.236;2022-12-18T14:43:48;14.17;;;10.10;;
870;SDS011;422;51.280;7.236;2022-12-18T14:46:27;13.57;;;9.20;;
870;SDS011;422;51.280;7.236;2022-12-18T14:48:57;15.03;;;9.67;;
870;SDS011;422;51.280;7.236;2022-12-18T14:51:30;14.67;;;10.67;;
870;SDS011;422;51.280;7.236;2022-12-18T14:54:00;15.27;;;10.23;;
870;SDS011;422;51.280;7.236;2022-12-18T14:56:29;14.60;;;10.20;;
870;SDS011;422;51.280;7.236;2022-12-18T14:58:57;17.07;;;10.97;;
870;SDS011;422;51.280;7.236;2022-12-18T15:01:27;17.73;;;11.23;;
870;SDS011;422;51.280;7.236;2022-12-18T15:03:56;20.53;;;12.10;;
870;SDS011;422;51.280;7.236;2022-12-18T15:06:27;14.20;;;10.60;;
870;SDS011;422;51.280;7.236;2022-12-18T15:09:01;16.70;;;11.47;;
870;SDS011;422;51.280;7.236;2022-12-18T15:11:34;19.23;;;11.70;;
870;SDS011;422;51.280;7.236;2022-12-18T15:17:01;17.17;;;12.10;;
870;SDS011;422;51.280;7.236;2022-12-18T15:19:35;19.27;;;12.20;;
870;SDS011;422;51.280;7.236;2022-12-18T15:22:12;21.37;;;11.90;;
870;SDS011;422;51.280;7.236;2022-12-18T15:24:49;19.50;;;12.47;;
870;SDS011;422;51.280;7.236;2022-12-18T15:27:23;18.33;;;12.30;;
870;SDS011;422;51.280;7.236;2022-12-18T15:30:17;16.63;;;11.57;;
870;SDS011;422;51.280;7.236;2022-12-18T15:32:47;15.57;;;11.00;;
870;SDS011;422;51.280;7.236;2022-12-18T15:35:16;18.37;;;11.90;;
870;SDS011;422;51.280;7.236;2022-12-18T15:37:46;16.87;;;10.93;;
870;SDS011;422;51.280;7.236;2022-12-18T15:40:15;18.17;;;12.43;;
870;SDS011;422;51.280;7.236;2022-12-18T15:42:43;18.13;;;12.70;;
870;SDS011;422;51.280;7.236;2022-12-18T15:45:29;21.40;;;12.93;;
870;SDS011;422;51.280;7.236;2022-12-18T15:47:56;20.80;;;11.60;;
870;SDS011;422;51.280;7.236;2022-12-18T15:50:23;19.57;;;12.57;;
870;SDS011;422;51.280;7.236;2022-12-18T15:52:53;19.73;;;12.37;;
870;SDS011;422;51.280;7.236;2022-12-18T15:55:22;19.93;;;12.87;;
870;SDS011;422;51.280;7.236;2022-12-18T15:58:08;21.13;;;13.10;;
870;SDS011;422;51.280;7.236;2022-12-18T16:00:37;21.70;;;14.20;;
870;SDS011;422;51.280;7.236;2022-12-18T16:03:05;22.53;;;14.20;;
870;SDS011;422;51.280;7.236;2022-12-18T16:05:33;24.60;;;13.97;;
870;SDS011;422;51.280;7.236;2022-12-18T16:08:01;18.63;;;12.47;;
870;SDS011;422;51.280;7.236;2022-12-18T16:10:29;22.13;;;13.90;;
870;SDS011;422;51.280;7.236;2022-12-18T16:12:56;23.77;;;14.10;;
870;SDS011;422;51.280;7.236;2022-12-18T16:15:23;22.60;;;14.17;;